Terminal Aerodrome Forecast
Issued by NWS Corpus Christi, TX

Home | Current Version | Previous Version | Text Only | Print | Product List | Glossary On
Versions: 1 2 3 4 5 6 7 8 9 10 11 12 13 14
000
FTUS44 KCRP 221700
TAFVCT
TAF
KVCT 221735Z 2218/2318 17007KT P6SM SCT035 SCT250
     FM230400 VRB04KT P6SM FEW015
      TEMPO 2310/2314 4SM BR
     FM231400 VRB04KT P6SM SCT025 SCT060=

USA.gov is the U.S. government's official web portal to all federal, state and local government web resources and services.